Latest Coastal Weather Observations for Hopetoun North

IDW60701

Issued at 7:43 am WST Friday 30 September 2016 (issued every 10 minutes, with the page automatically refreshed every 10 minutes)

About coastal observations | Map of coastal stations | Coastal observations for WA | Marine services | Other Formats
Station Details ID: 009961 Name: HOPETOUN NORTH Lat: -33.93 Lon: 120.13 Height: 26.0 m
Data from the previous 72 hours. | See also: Recent months at Hopetoun North
Date/Time
WST
Temp
°C
Wind Pressure Rain since
9am
mm
Weather Cloud Vis
km
Sea
Height
m
Swell
Dir  Spd
kts
Gust
kts
hPa Trend Height
m
Period
s
Dir
30/07:30am 11.1 WNW 8 12 1006.0 - 0.0 - - - - - - -
30/07:00am 10.0 WNW 7 9 1006.2 - 0.0 - - - - - - -
30/06:30am 7.8 NW 4 6 1006.0 - 0.0 - - - - - - -
30/06:00am 6.7 NW 5 9 1006.2 - 0.0 - - - - - - -
30/05:30am 5.2 NE 7 9 1005.4 - 0.0 - - - - - - -
30/05:00am 5.5 NE 7 8 1006.0 - 0.0 - - - - - - -
30/04:30am 6.8 NNE 5 8 1006.3 - 0.0 - - - - - - -
30/04:00am 6.4 NNE 7 9 1006.6 - 0.0 - - - - - - -
30/03:30am 6.5 N 7 10 1007.4 - 0.0 - - - - - - -
30/03:00am 5.4 ENE 5 7 1007.4 - 0.0 - - - - - - -
30/02:30am 5.3 NE 7 9 1007.7 - 0.0 - - - - - - -
30/02:00am 5.3 NE 7 8 1008.4 - 0.0 - - - - - - -
30/01:30am 5.3 NE 7 8 1009.2 - 0.0 - - - - - - -
30/01:00am 5.3 NE 6 8 1010.0 - 0.0 - - - - - - -
30/12:30am 5.5 NE 6 7 1010.4 - 0.0 - - - - - - -
30/12:00am 6.0 NE 6 7 1011.0 - 0.0 - - - - - - -
 
Date/Time
WST
Temp
°C
Wind Pressure Rain since
9am
mm
Weather Cloud Vis
km
Sea
Height
m
Swell
Dir  Spd
kts
Gust
kts
hPa Trend Height
m
Period
s
Dir
29/11:30pm 6.8 NNE 5 6 1011.5 - 0.0 - - - - - - -
29/11:00pm 7.5 NE 6 8 1012.0 - 0.0 - - - - - - -
29/10:30pm 7.5 NE 5 8 1012.6 - 0.0 - - - - - - -
29/10:00pm 7.3 NNE 3 5 1013.1 - 0.0 - - - - - - -
29/09:30pm 8.0 NE 6 7 1013.3 - 0.0 - - - - - - -
29/09:00pm 8.1 ENE 7 7 1013.6 - 0.0 - - - - - - -
29/08:30pm 8.3 NE 5 7 1013.9 - 0.0 - - - - - - -
29/08:00pm 8.5 NNE 3 4 1014.4 - 0.0 - - - - - - -
29/07:30pm 9.2 NE 2 4 1014.4 - 0.0 - - - - - - -
29/07:00pm 9.8 NE 5 6 1014.1 - 0.0 - - - - - - -
29/06:30pm 10.8 ENE 4 6 1014.3 - 0.0 - - - - - - -
29/06:00pm 11.7 E 9 13 1014.3 - 0.0 - - - - - - -
29/05:30pm 12.5 E 10 14 1014.4 - 0.0 - - - - - - -
29/05:00pm 12.9 E 12 17 1014.8 - 0.0 - - - - - - -
29/04:30pm 13.6 ESE 12 17 1015.1 - 0.0 - - - - - - -
29/04:00pm 13.9 ESE 10 15 1015.8 - 0.0 - - - - - - -
29/03:30pm 14.2 ESE 12 17 1016.2 - 0.0 - - - - - - -
29/03:00pm 14.3 SE 11 17 1016.7 - 0.0 - - - - - - -
29/02:30pm 14.9 SE 10 15 1017.4 - 0.0 - - - - - - -
29/02:00pm 14.5 SE 10 13 1017.8 - 0.0 - - - - - - -
29/01:30pm 14.6 ESE 10 14 1018.4 - 0.0 - - - - - - -
29/01:00pm 14.6 SE 10 14 1018.9 - 0.0 - - - - - - -
29/12:30pm 14.6 SSE 9 13 1019.5 - 0.0 - - - - - - -
29/12:00pm 14.3 SSE 9 14 1020.3 - 0.0 - - - - - - -
29/11:30am 14.3 S 6 10 1020.9 - 0.0 - - - - - - -
29/11:00am 13.4 SSW 7 11 1021.4 - 0.0 - - - - - - -
29/10:30am 13.4 SSW 3 5 1021.5 - 0.0 - - - - - - -
29/10:00am 13.4 N 4 9 1021.5 - 0.0 - - - - - - -
29/09:30am 12.9 ENE 4 9 1021.4 - 0.0 - - - - - - -
29/09:00am 12.4 ENE 3 4 1021.9 - 0.8 - - - - - - -
29/08:30am 12.2 N 4 6 1022.1 - 0.8 - - - - - - -
29/08:00am 12.0 NNE 2 3 1021.7 - 0.8 - - - - - - -
29/07:30am 11.5 CALM 0 2 1021.8 - 0.8 - - - - - - -
29/07:00am 11.2 SE 4 6 1021.6 - 0.8 - - - - - - -
29/06:30am 10.6 CALM 0 1 1021.5 - 0.8 - - - - - - -
29/06:00am 10.2 S 4 8 1021.3 - 0.8 - - - - - - -
29/05:30am 10.1 SSE 4 8 1021.1 - 0.8 - - - - - - -
29/05:00am 10.0 S 2 5 1021.2 - 0.8 - - - - - - -
29/04:30am 10.3 S 7 11 1021.5 - 0.8 - - - - - - -
29/04:00am 10.3 SSW 6 8 1021.3 - 0.8 - - - - - - -
29/03:30am 10.3 S 6 9 1021.1 - 0.8 - - - - - - -
29/03:00am 10.2 S 5 9 1021.3 - 0.8 - - - - - - -
29/02:30am 10.3 SSW 9 13 1021.6 - 0.8 - - - - - - -
29/02:00am 10.3 SSW 6 13 1021.7 - 0.8 - - - - - - -
29/01:30am 10.4 S 10 15 1021.8 - 0.8 - - - - - - -
29/01:00am 10.3 SSW 10 15 1022.0 - 0.8 - - - - - - -
29/12:30am 10.2 SSW 9 13 1022.1 - 0.8 - - - - - - -
29/12:00am 10.4 SSW 11 16 1022.0 - 0.8 - - - - - - -
 
Date/Time
WST
Temp
°C
Wind Pressure Rain since
9am
mm
Weather Cloud Vis
km
Sea
Height
m
Swell
Dir  Spd
kts
Gust
kts
hPa Trend Height
m
Period
s
Dir
28/11:30pm 10.2 SSW 13 19 1022.3 - 0.8 - - - - - - -
28/11:00pm 10.4 SSW 11 16 1022.5 - 0.8 - - - - - - -
28/10:30pm 10.5 SSW 12 15 1022.6 - 0.8 - - - - - - -
28/10:00pm 10.6 SSW 13 19 1022.5 - 0.8 - - - - - - -
28/09:30pm 10.4 SSW 15 21 1022.5 - 0.8 - - - - - - -
28/09:00pm 10.4 SSW 15 20 1022.5 - 0.8 - - - - - - -
28/08:30pm 10.8 SSW 14 20 1022.5 - 0.8 - - - - - - -
28/08:00pm 10.5 SSW 14 21 1022.5 - 0.8 - - - - - - -
28/07:30pm 10.4 SSW 13 22 1022.5 - 0.8 - - - - - - -
28/07:00pm 10.5 SW 16 23 1022.3 - 0.8 - - - - - - -
28/06:30pm 9.9 SSW 18 26 1022.1 - 0.8 - - - - - - -
28/06:00pm 9.5 SW 15 22 1021.8 - 0.6 - - - - - - -
28/05:30pm 10.3 SSW 20 28 1021.4 - 0.6 - - - - - - -
28/05:23pm 10.6 SW 18 28 1021.2 - 0.6 - - - - - - -
28/05:00pm 9.6 SW 20 28 1021.4 - 0.6 - - - - - - -
28/04:30pm 11.0 SW 19 27 1020.9 - 0.6 - - - - - - -
28/04:09pm 10.7 SSW 17 29 1020.5 - 0.6 - - - - - - -
28/04:00pm 10.5 SSW 15 23 1020.6 - 0.6 - - - - - - -
28/03:30pm 9.9 SSW 21 33 1020.5 - 0.4 - - - - - - -
28/03:11pm 11.3 SW 17 28 1020.2 - 0.4 - - - - - - -
28/03:00pm 11.8 SW 16 22 1020.2 - 0.4 - - - - - - -
28/02:40pm 10.7 SW 19 30 1020.0 - 0.4 - - - - - - -
28/02:30pm 12.1 SW 20 29 1019.8 - 0.4 - - - - - - -
28/02:02pm 11.6 SW 18 28 1019.8 - 0.4 - - - - - - -
28/02:00pm 11.4 SW 19 28 1019.8 - 0.4 - - - - - - -
28/01:30pm 10.8 SW 23 30 1019.6 - 0.4 - - - - - - -
28/01:18pm 11.3 SW 19 29 1019.6 - 0.4 - - - - - - -
28/01:00pm 10.9 SSW 20 29 1019.4 - 0.4 - - - - - - -
28/12:30pm 10.6 SSW 17 26 1019.3 - 0.4 - - - - - - -
28/12:24pm 9.6 SW 18 29 1019.4 - 0.4 - - - - - - -
28/12:00pm 10.4 SW 22 31 1019.1 - 0.2 - - - - - - -
28/11:30am 11.4 SSW 24 34 1018.8 - 0.2 - - - - - - -
28/11:08am 11.6 SW 23 34 1018.6 - 0.2 - - - - - - -
28/11:00am 9.5 SSW 25 34 1018.5 - 0.2 - - - - - - -
28/10:30am 11.2 SW 23 33 1018.1 - 0.2 - - - - - - -
28/10:00am 10.2 SW 23 36 1017.6 - 0.2 - - - - - - -
28/09:39am 8.2 SW 22 32 1017.6 - 0.2 - - - - - - -
28/09:30am 8.6 SW 23 31 1017.5 - 0.0 - - - - - - -
28/09:02am 12.1 SSW 27 38 1016.7 - 0.0 - - - - - - -
28/09:00am 11.8 SSW 28 38 1016.6 - 10.2 - - - - - - -
28/08:33am 10.9 SW 27 38 1016.2 - 10.2 - - - - - - -
28/08:30am 10.7 SW 28 38 1016.1 - 10.2 - - - - - - -
28/08:00am 10.4 SSW 26 37 1015.6 - 10.2 - - - - - - -
28/07:30am 8.6 SSW 28 41 1015.0 - 10.2 - - - - - - -
28/07:19am 10.2 SW 25 44 1014.4 - 10.2 - - - - - - -
28/07:00am 9.1 SW 22 32 1013.9 - 10.2 - - - - - - -
28/06:30am 9.4 SW 26 41 1013.5 - 10.0 - - - - - - -
28/06:00am 9.2 SW 29 40 1012.8 - 10.0 - - - - - - -
28/05:30am 8.8 SW 29 40 1012.0 - 10.0 - - - - - - -
28/05:20am 9.1 SW 27 42 1011.7 - 10.0 - - - - - - -
28/05:00am 7.4 WSW 20 32 1011.8 - 10.0 - - - - - - -
28/04:44am 7.0 WSW 17 31 1011.8 - 10.0 - - - - - - -
28/04:43am 6.9 WSW 15 26 1011.6 - 10.0 - - - - - - -
28/04:30am 6.8 WSW 12 20 1011.5 - 9.4 - - - - - - -
28/04:00am 7.5 WSW 16 25 1010.9 - 9.4 - - - - - - -
28/03:41am 6.6 WSW 24 40 1010.4 - 9.4 - - - - - - -
28/03:40am 6.6 WSW 25 40 1010.4 - 9.4 - - - - - - -
28/03:36am 6.5 SW 24 40 1010.6 - 9.4 - - - - - - -
28/03:34am 6.7 SW 21 40 1010.5 - 9.4 - - - - - - -
28/03:33am 7.1 SW 18 38 1010.6 - 9.4 - - - - - - -
28/03:30am 6.7 SW 17 28 1010.4 - 9.4 - - - - - - -
28/03:23am 6.1 SW 26 49 1010.5 - 9.4 - - - - - - -
28/03:19am 5.6 SW 32 55 1010.6 - 9.2 - - - - - - -
28/03:11am 7.4 SW 24 55 1010.2 - 7.6 - - - - - - -
28/03:10am 8.1 SW 23 55 1010.1 - 7.6 - - - - - - -
28/03:00am 7.8 SW 23 34 1009.6 - 7.4 Recent precip. - - - - - -
28/02:38am 7.0 SW 19 31 1009.2 - 7.2 - - - - - - -
28/02:37am 6.9 SW 19 31 1009.2 - 7.2 - - - - - - -
28/02:30am 6.8 WSW 20 32 1009.3 - 6.8 - - - - - - -
28/02:17am 6.4 WSW 18 32 1009.7 - 6.2 - - - - - - -
28/02:00am 6.3 W 15 24 1008.9 - 4.2 - - - - - - -
28/01:36am 7.3 WSW 18 29 1008.6 - 4.2 - - - - - - -
28/01:30am 7.3 WSW 21 34 1008.6 - 4.2 - - - - - - -
28/01:25am 7.2 WSW 25 36 1008.5 - 4.2 - - - - - - -
28/01:09am 7.6 W 21 40 1008.6 - 4.0 - - - - - - -
28/01:06am 7.0 W 17 29 1008.5 - 3.8 - - - - - - -
28/01:00am 6.5 W 16 26 1008.4 - 3.8 - - - - - - -
28/12:39am 6.7 W 16 26 1008.4 - 3.8 - - - - - - -
28/12:30am 7.3 W 18 26 1008.6 - 3.8 - - - - - - -
28/12:00am 7.6 WSW 26 39 1008.8 - 3.8 Recent precip. - - - - - -
 
Date/Time
WST
Temp
°C
Wind Pressure Rain since
9am
mm
Weather Cloud Vis
km
Sea
Height
m
Swell
Dir  Spd
kts
Gust
kts
hPa Trend Height
m
Period
s
Dir
27/11:30pm 7.4 W 17 32 1008.8 - 3.4 - - - - - - -
27/11:29pm 7.4 W 16 32 1008.8 - 3.2 - - - - - - -
27/11:00pm 7.6 WSW 18 27 1008.3 - 3.0 - - - - - - -
27/10:30pm 8.2 WSW 26 37 1008.4 - 2.4 - - - - - - -
27/10:00pm 8.8 SW 24 36 1007.7 - 2.4 - - - - - - -
27/09:30pm 8.7 WSW 22 32 1007.6 - 2.4 - - - - - - -
27/09:02pm 8.9 W 16 40 1007.3 - 2.4 - - - - - - -
27/09:00pm 8.8 W 14 20 1007.3 - 2.4 Recent precip. - - - - - -
27/08:33pm 9.7 WSW 18 28 1006.9 - 2.0 - - - - - - -
27/08:30pm 9.5 WSW 20 30 1006.8 - 2.0 - - - - - - -
27/08:04pm 10.5 WSW 18 31 1006.4 - 2.0 - - - - - - -
27/08:00pm 10.5 WSW 17 27 1006.3 - 2.0 - - - - - - -
27/07:32pm 10.5 WSW 23 33 1005.7 - 2.0 - - - - - - -
27/07:30pm 10.6 WSW 24 33 1005.6 - 2.0 - - - - - - -
27/07:01pm 10.8 WSW 24 35 1004.9 - 2.0 - - - - - - -
27/07:00pm 10.7 WSW 24 35 1004.9 - 2.0 - - - - - - -
27/06:39pm 11.2 W 16 35 1004.4 - 2.0 - - - - - - -
27/06:30pm 11.7 W 13 18 1004.3 - 2.0 - - - - - - -
27/06:00pm 11.8 W 14 22 1003.7 - 2.0 - - - - - - -
27/05:30pm 12.1 W 14 23 1003.6 - 2.0 - - - - - - -
27/05:16pm 12.9 WSW 17 27 1003.2 - 2.0 - - - - - - -
27/05:00pm 12.0 WSW 20 29 1003.0 - 2.0 - - - - - - -
27/04:30pm 13.2 WSW 20 31 1002.7 - 1.8 - - - - - - -
27/04:00pm 14.6 W 24 37 1001.9 - 1.8 - - - - - - -
27/03:30pm 16.0 WNW 18 28 1001.2 - 1.8 - - - - - - -
27/03:26pm 16.0 NW 16 27 1001.3 - 1.8 - - - - - - -
27/03:00pm 14.5 WNW 16 25 1001.5 - 1.8 Rain - - - - - -
27/02:37pm 18.4 NW 15 32 1001.6 - 0.4 - - - - - - -
27/02:30pm 19.2 NW 16 24 1001.2 - 0.4 - - - - - - -
27/02:00pm 20.3 NW 14 25 1001.9 - 0.4 - - - - - - -
27/01:30pm 17.8 WNW 12 18 1003.0 - 0.4 - - - - - - -
27/01:00pm 19.1 NW 13 25 1003.7 - 0.2 - - - - - - -
27/12:48pm 18.5 NNW 15 25 1004.2 - 0.2 - - - - - - -
27/12:30pm 20.4 NW 16 24 1004.5 - 0.2 - - - - - - -
27/12:23pm 20.2 NW 15 25 1004.7 - 0.2 - - - - - - -
27/12:00pm 20.5 NW 10 16 1005.4 - 0.2 Recent precip. - - - - - -
27/11:30am 20.4 NW 13 21 1006.4 - 0.0 - - - - - - -
27/11:00am 18.4 NW 11 16 1007.4 - 0.0 - - - - - - -
27/10:30am 18.8 NW 13 21 1008.2 - 0.0 - - - - - - -
27/10:00am 18.4 NW 11 21 1008.9 - 0.0 - - - - - - -
27/09:30am 17.0 NW 10 16 1009.6 - 0.0 - - - - - - -
27/09:00am 17.0 NW 10 16 1010.1 - 0.0 - - - - - - -
27/08:30am 15.0 NNW 8 13 1010.8 - 0.0 - - - - - - -
27/08:00am 13.7 NNW 8 13 1011.4 - 0.0 - - - - - - -

Other Formats:

Comma delimited format used in spreadsheet applications
http://www.bom.gov.au/fwo/IDW60701/IDW60701.95635.axf

JavaScript Object Notation format (JSON) in row-major order
http://www.bom.gov.au/fwo/IDW60701/IDW60701.95635.json